createdAt,value
2022-11-20T00:01:37.220Z,72.52
2022-11-20T00:04:05.567Z,72.55
2022-11-20T00:06:33.704Z,72.67
2022-11-20T00:09:02.914Z,72.89
2022-11-20T00:11:32.628Z,73.00
2022-11-20T00:14:02.848Z,72.85
2022-11-20T00:16:33.306Z,72.70
2022-11-20T00:19:02.138Z,72.29
2022-11-20T00:21:31.283Z,72.53
2022-11-20T00:23:59.849Z,72.36
2022-11-20T00:26:29.215Z,72.26
2022-11-20T00:29:02.044Z,72.52
2022-11-20T00:31:31.478Z,72.45
2022-11-20T00:33:59.614Z,72.37
2022-11-20T00:36:29.756Z,72.34
2022-11-20T00:38:59.310Z,72.56
2022-11-20T00:41:28.951Z,72.50
2022-11-20T00:43:57.807Z,72.52
2022-11-20T00:46:28.301Z,72.41
2022-11-20T00:48:57.003Z,72.35
2022-11-20T00:51:27.406Z,72.22
2022-11-20T00:53:57.455Z,71.74
2022-11-20T00:56:25.693Z,71.85
2022-11-20T00:58:54.037Z,71.91
2022-11-20T01:01:27.029Z,72.05
2022-11-20T01:03:59.004Z,71.80
2022-11-20T01:06:30.286Z,71.89
2022-11-20T01:09:01.747Z,71.91
2022-11-20T01:11:32.970Z,71.97
2022-11-20T01:14:03.097Z,72.08
2022-11-20T01:16:37.352Z,71.57
2022-11-20T01:19:08.008Z,71.27
2022-11-20T01:21:39.015Z,71.38
2022-11-20T01:24:09.303Z,71.64
2022-11-20T01:26:39.423Z,71.98
2022-11-20T01:29:12.576Z,72.07
2022-11-20T01:31:40.902Z,72.29
2022-11-20T01:34:13.415Z,72.47
2022-11-20T01:36:42.840Z,72.40
2022-11-20T01:39:20.057Z,72.57
2022-11-20T01:42:10.424Z,72.44
2022-11-20T01:45:25.375Z,72.31
2022-11-20T01:47:53.650Z,71.98
2022-11-20T01:50:33.651Z,71.87
2022-11-20T01:53:09.613Z,72.17
2022-11-20T01:55:43.223Z,72.25
2022-11-20T01:58:11.502Z,72.22
2022-11-20T02:00:39.725Z,72.25
2022-11-20T02:03:27.701Z,72.30
2022-11-20T02:06:08.989Z,72.28
2022-11-20T02:08:39.142Z,72.35
2022-11-20T02:11:07.654Z,72.27
2022-11-20T02:13:45.101Z,72.20
2022-11-20T02:16:26.020Z,72.18
2022-11-20T02:18:57.785Z,72.20
2022-11-20T02:21:30.500Z,72.15
2022-11-20T02:24:05.711Z,72.31
2022-11-20T02:26:58.977Z,72.30
2022-11-20T02:29:38.426Z,72.01
2022-11-20T02:32:06.810Z,71.99
2022-11-20T02:34:34.906Z,71.89
2022-11-20T02:37:03.087Z,72.04
2022-11-20T02:39:31.416Z,72.28
2022-11-20T02:42:02.182Z,72.25
2022-11-20T02:44:30.375Z,72.21
2022-11-20T02:46:59.844Z,72.35
2022-11-20T02:49:28.051Z,72.24
2022-11-20T02:51:56.269Z,72.27
2022-11-20T02:54:25.440Z,71.87
2022-11-20T02:56:53.703Z,71.87
2022-11-20T02:59:22.190Z,71.81
2022-11-20T03:01:50.888Z,71.69
2022-11-20T03:04:19.115Z,71.19
2022-11-20T03:06:47.125Z,71.55
2022-11-20T03:09:15.166Z,71.74
2022-11-20T03:11:43.533Z,71.84
2022-11-20T03:14:11.594Z,71.92
2022-11-20T03:16:39.824Z,72.02
2022-11-20T03:19:08.088Z,71.98
2022-11-20T03:21:36.916Z,72.03
2022-11-20T03:24:05.598Z,72.02
2022-11-20T03:26:34.531Z,71.97
2022-11-20T03:29:05.366Z,72.15
2022-11-20T03:31:41.446Z,72.10
2022-11-20T03:34:11.904Z,72.06
2022-11-20T03:36:41.302Z,72.00
2022-11-20T03:39:09.829Z,72.00
2022-11-20T03:41:40.366Z,71.85
2022-11-20T03:44:10.889Z,71.90
2022-11-20T03:46:39.941Z,71.72
2022-11-20T03:49:08.076Z,71.68
2022-11-20T03:51:37.073Z,71.62
2022-11-20T03:54:08.700Z,71.73
2022-11-20T03:56:39.285Z,71.69
2022-11-20T03:59:07.831Z,71.83
2022-11-20T04:01:38.575Z,72.08
2022-11-20T04:04:07.138Z,72.10
2022-11-20T04:06:38.616Z,72.28
2022-11-20T04:09:06.936Z,72.13
2022-11-20T04:11:38.403Z,72.42
2022-11-20T04:14:08.066Z,72.54
2022-11-20T04:16:37.423Z,72.57
2022-11-20T04:19:10.024Z,72.54
2022-11-20T04:21:38.513Z,72.55
2022-11-20T04:24:07.146Z,72.59
2022-11-20T04:26:36.046Z,72.85
2022-11-20T04:29:04.957Z,73.49
2022-11-20T04:31:34.926Z,73.63
2022-11-20T04:34:05.390Z,73.89
2022-11-20T04:36:34.277Z,73.56
2022-11-20T04:39:05.072Z,72.76
2022-11-20T04:41:36.139Z,72.38
2022-11-20T04:44:06.215Z,72.28
2022-11-20T04:46:39.817Z,72.40
2022-11-20T04:49:11.481Z,72.67
2022-11-20T04:51:39.793Z,72.98
2022-11-20T04:54:07.916Z,72.85
2022-11-20T04:56:36.039Z,72.82
2022-11-20T04:59:04.436Z,72.57
2022-11-20T05:01:33.778Z,72.66
2022-11-20T05:04:02.096Z,72.93
2022-11-20T05:06:30.216Z,72.84
2022-11-20T05:08:58.744Z,72.58
2022-11-20T05:11:30.008Z,72.71
2022-11-20T05:14:00.046Z,72.53
2022-11-20T05:16:29.543Z,72.52
2022-11-20T05:18:57.717Z,72.40
2022-11-20T05:21:26.116Z,72.46
2022-11-20T05:23:54.526Z,72.52
2022-11-20T05:26:23.280Z,72.42
2022-11-20T05:28:52.757Z,72.50
2022-11-20T05:31:27.215Z,72.39
2022-11-20T05:33:58.274Z,72.30
2022-11-20T05:36:26.824Z,72.19
2022-11-20T05:39:01.080Z,72.16
2022-11-20T05:41:30.943Z,72.29
2022-11-20T05:43:59.873Z,72.11
2022-11-20T05:46:29.510Z,71.94
2022-11-20T05:48:59.305Z,71.69
2022-11-20T05:51:27.953Z,71.57
2022-11-20T05:53:59.700Z,72.00
2022-11-20T05:56:28.175Z,71.93
2022-11-20T05:58:57.141Z,72.14
2022-11-20T06:01:29.577Z,72.29
2022-11-20T06:03:57.727Z,72.12
2022-11-20T06:06:27.046Z,71.98
2022-11-20T06:08:56.403Z,72.03
2022-11-20T06:11:24.623Z,72.05
2022-11-20T06:13:52.915Z,72.06
2022-11-20T06:16:21.490Z,72.15
2022-11-20T06:18:49.860Z,71.92
2022-11-20T06:21:20.623Z,71.75
2022-11-20T06:23:51.202Z,71.68
2022-11-20T06:26:28.688Z,71.51
2022-11-20T06:28:57.371Z,71.37
2022-11-20T06:31:26.983Z,71.54
2022-11-20T06:33:55.475Z,71.77
2022-11-20T06:36:24.806Z,72.05
2022-11-20T06:38:53.050Z,72.09
2022-11-20T06:41:23.004Z,72.17
2022-11-20T06:43:51.938Z,72.25
2022-11-20T06:46:21.578Z,72.42
2022-11-20T06:48:50.516Z,72.52
2022-11-20T06:51:19.545Z,72.64
2022-11-20T06:53:47.873Z,72.56
2022-11-20T06:56:16.299Z,72.58
2022-11-20T06:58:47.115Z,72.54
2022-11-20T07:01:16.663Z,72.68
2022-11-20T07:03:45.791Z,72.78
2022-11-20T07:06:16.298Z,72.91
2022-11-20T07:08:44.455Z,72.86
2022-11-20T07:11:13.201Z,72.85
2022-11-20T07:13:41.555Z,72.87
2022-11-20T07:16:10.119Z,73.13
2022-11-20T07:18:38.484Z,73.08
2022-11-20T07:21:10.621Z,73.21
2022-11-20T07:23:41.453Z,73.19
2022-11-20T07:26:12.381Z,73.35
2022-11-20T07:28:40.703Z,73.50
2022-11-20T07:31:09.106Z,73.61
2022-11-20T07:33:39.140Z,73.93
2022-11-20T07:36:07.685Z,74.14
2022-11-20T07:38:35.934Z,74.06
2022-11-20T07:41:04.295Z,74.17
2022-11-20T07:43:35.870Z,74.28
2022-11-20T07:46:08.450Z,74.30
2022-11-20T07:48:36.742Z,74.22
2022-11-20T07:51:04.983Z,74.48
2022-11-20T07:53:33.523Z,74.66
2022-11-20T07:56:02.570Z,74.93
2022-11-20T07:58:35.627Z,75.14
2022-11-20T08:01:12.716Z,75.29
2022-11-20T08:03:40.962Z,75.42
2022-11-20T08:06:09.953Z,75.63
2022-11-20T08:08:43.247Z,75.79
2022-11-20T08:11:30.533Z,75.91
2022-11-20T08:14:14.595Z,76.26
2022-11-20T08:16:49.765Z,76.39
2022-11-20T08:19:19.870Z,76.42
2022-11-20T08:21:48.675Z,76.54
2022-11-20T08:24:17.049Z,76.70
2022-11-20T08:26:45.706Z,76.75
2022-11-20T08:29:17.057Z,76.92
2022-11-20T08:31:45.386Z,77.05
2022-11-20T08:34:35.177Z,77.03
2022-11-20T08:37:03.989Z,76.94
2022-11-20T08:39:32.807Z,76.87
2022-11-20T08:42:01.573Z,77.08
2022-11-20T08:44:30.106Z,77.20
2022-11-20T08:46:58.366Z,77.34
2022-11-20T08:49:26.747Z,77.21
2022-11-20T08:51:56.304Z,77.35
2022-11-20T08:54:24.619Z,77.28
2022-11-20T08:56:52.999Z,77.07
2022-11-20T08:59:37.288Z,77.36
2022-11-20T09:02:09.989Z,77.31
2022-11-20T09:04:38.780Z,77.27
2022-11-20T09:07:06.986Z,77.17
2022-11-20T09:09:35.898Z,77.12
2022-11-20T09:12:04.440Z,76.85
2022-11-20T09:14:32.832Z,76.88
2022-11-20T09:17:01.086Z,77.00
2022-11-20T09:19:35.369Z,76.74
2022-11-20T09:22:05.029Z,76.51
2022-11-20T09:24:33.143Z,76.38
2022-11-20T09:27:03.945Z,76.45
2022-11-20T09:29:32.132Z,76.25
2022-11-20T09:32:00.148Z,76.14
2022-11-20T09:34:28.259Z,75.89
2022-11-20T09:36:56.640Z,75.65
2022-11-20T09:39:24.981Z,75.30
2022-11-20T09:42:20.503Z,75.29
2022-11-20T09:44:59.497Z,74.93
2022-11-20T09:47:50.366Z,75.09
2022-11-20T09:50:21.302Z,75.03
2022-11-20T09:53:14.320Z,74.79
2022-11-20T09:55:43.983Z,74.54
2022-11-20T09:58:26.766Z,74.19
2022-11-20T10:00:57.835Z,74.24
2022-11-20T10:03:57.309Z,74.29
2022-11-20T10:06:33.988Z,73.44
2022-11-20T10:09:21.328Z,73.04
2022-11-20T10:12:06.921Z,72.97
2022-11-20T10:14:43.885Z,73.31
2022-11-20T10:17:46.150Z,73.30
2022-11-20T10:20:22.432Z,73.48
2022-11-20T10:23:02.206Z,73.14
2022-11-20T10:25:45.774Z,72.79
2022-11-20T10:28:32.811Z,72.44
2022-11-20T10:31:09.344Z,72.30
2022-11-20T10:34:05.042Z,72.72
2022-11-20T10:36:40.130Z,72.75
2022-11-20T10:39:16.350Z,72.72
2022-11-20T10:41:50.965Z,72.35
2022-11-20T10:45:05.622Z,71.84
2022-11-20T10:47:35.108Z,71.61
2022-11-20T10:50:11.102Z,71.42
2022-11-20T10:52:57.313Z,71.38
2022-11-20T10:55:41.468Z,70.99
2022-11-20T10:58:18.138Z,70.86
2022-11-20T11:01:07.011Z,70.42
2022-11-20T11:03:35.863Z,70.66
2022-11-20T11:06:35.024Z,70.35
2022-11-20T11:09:14.460Z,70.44
2022-11-20T11:11:45.235Z,70.58
2022-11-20T11:14:16.649Z,70.83
2022-11-20T11:16:56.663Z,70.62
2022-11-20T11:19:25.923Z,70.48
2022-11-20T11:21:57.939Z,70.46
2022-11-20T11:24:41.816Z,70.39
2022-11-20T11:27:19.225Z,70.26
2022-11-20T11:29:47.973Z,70.67
2022-11-20T11:32:19.706Z,70.65
2022-11-20T11:35:04.075Z,70.40
2022-11-20T11:37:37.408Z,70.19
2022-11-20T11:40:24.632Z,70.10
2022-11-20T11:43:03.551Z,70.23
2022-11-20T11:45:34.488Z,70.22
2022-11-20T11:48:05.252Z,69.94
2022-11-20T11:50:34.274Z,69.63
2022-11-20T11:53:16.480Z,69.60
2022-11-20T11:56:09.477Z,69.34
2022-11-20T11:58:55.086Z,69.39
2022-11-20T12:01:42.863Z,69.41
2022-11-20T12:04:47.536Z,69.07
2022-11-20T12:07:55.102Z,69.25
2022-11-20T12:10:26.219Z,69.25
2022-11-20T12:13:03.267Z,69.45
2022-11-20T12:15:35.226Z,69.25
2022-11-20T12:18:05.668Z,69.20
2022-11-20T12:20:46.526Z,69.16
2022-11-20T12:23:43.505Z,68.96
2022-11-20T12:26:40.034Z,68.95
2022-11-20T12:29:20.046Z,68.88
2022-11-20T12:32:12.412Z,69.05
2022-11-20T12:34:49.664Z,68.99
2022-11-20T12:37:38.857Z,68.76
2022-11-20T12:40:40.053Z,68.75
2022-11-20T12:43:47.653Z,68.68
2022-11-20T12:46:32.859Z,68.72
2022-11-20T12:49:25.716Z,68.59
2022-11-20T12:52:18.944Z,68.52
2022-11-20T12:55:18.717Z,68.38
2022-11-20T12:58:12.805Z,68.18
2022-11-20T13:01:07.976Z,68.22
2022-11-20T13:03:46.696Z,68.34
2022-11-20T13:06:20.103Z,68.66
2022-11-20T13:08:57.169Z,68.45
2022-11-20T13:12:03.810Z,68.21
2022-11-20T13:14:35.172Z,68.18
2022-11-20T13:17:18.578Z,68.18
2022-11-20T13:19:55.981Z,68.23
2022-11-20T13:22:28.989Z,68.31
2022-11-20T13:25:00.333Z,68.36
2022-11-20T13:27:32.063Z,68.14
2022-11-20T13:30:12.955Z,68.23
2022-11-20T13:32:50.742Z,68.24
2022-11-20T13:35:55.549Z,68.06
2022-11-20T13:38:23.766Z,67.89
2022-11-20T13:40:53.623Z,67.79
2022-11-20T13:43:27.982Z,67.86
2022-11-20T13:45:57.212Z,67.83
2022-11-20T13:48:29.479Z,67.97
2022-11-20T13:51:19.217Z,68.00
2022-11-20T13:54:23.912Z,68.09
2022-11-20T13:56:59.843Z,68.00
2022-11-20T13:59:53.831Z,68.09
2022-11-20T14:02:24.395Z,68.27
2022-11-20T14:04:55.173Z,68.36
2022-11-20T14:07:28.490Z,68.44
2022-11-20T14:09:59.061Z,68.52
2022-11-20T14:12:32.280Z,68.61
2022-11-20T14:15:00.559Z,68.63
2022-11-20T14:17:34.929Z,68.65
2022-11-20T14:20:07.286Z,68.85
2022-11-20T14:22:36.385Z,68.85
2022-11-20T14:25:19.274Z,68.99
2022-11-20T14:27:53.100Z,69.09
2022-11-20T14:30:27.874Z,69.27
2022-11-20T14:33:03.074Z,69.38
2022-11-20T14:35:36.459Z,69.20
2022-11-20T14:38:05.248Z,69.27
2022-11-20T14:40:37.350Z,69.36
2022-11-20T14:43:27.237Z,69.41
2022-11-20T14:45:58.619Z,69.72
2022-11-20T14:48:33.482Z,69.68
2022-11-20T14:51:01.589Z,69.63
2022-11-20T14:53:30.330Z,69.73
2022-11-20T14:56:00.550Z,69.88
2022-11-20T14:58:34.907Z,69.96
2022-11-20T15:01:07.519Z,69.93
2022-11-20T15:03:41.152Z,69.97
2022-11-20T15:06:13.115Z,70.10
2022-11-20T15:08:52.364Z,70.18
2022-11-20T15:11:38.990Z,70.34
2022-11-20T15:14:08.175Z,70.39
2022-11-20T15:16:36.539Z,70.50
2022-11-20T15:19:17.951Z,70.69
2022-11-20T15:21:46.165Z,70.81
2022-11-20T15:24:14.573Z,71.10
2022-11-20T15:26:43.504Z,71.27
2022-11-20T15:29:20.284Z,71.52
2022-11-20T15:31:48.411Z,71.69
2022-11-20T15:34:16.815Z,71.82
2022-11-20T15:36:45.263Z,71.86
2022-11-20T15:39:13.401Z,72.14
2022-11-20T15:41:41.691Z,72.23
2022-11-20T15:44:09.863Z,72.28
2022-11-20T15:46:41.191Z,72.30
2022-11-20T15:49:15.354Z,72.34
2022-11-20T15:51:49.110Z,72.38
2022-11-20T15:54:23.687Z,72.37
2022-11-20T15:56:54.875Z,72.42
2022-11-20T15:59:23.137Z,72.41
2022-11-20T16:01:51.190Z,72.42
2022-11-20T16:04:19.600Z,72.53
2022-11-20T16:06:48.033Z,72.50
2022-11-20T16:09:16.228Z,72.72
2022-11-20T16:11:44.549Z,72.84
2022-11-20T16:14:31.363Z,72.89
2022-11-20T16:16:59.593Z,73.15
2022-11-20T16:19:28.111Z,73.21
2022-11-20T16:22:02.441Z,73.33
2022-11-20T16:24:31.644Z,73.40
2022-11-20T16:26:59.888Z,73.41
2022-11-20T16:29:27.989Z,73.39
2022-11-20T16:31:57.804Z,73.45
2022-11-20T16:34:26.223Z,73.47
2022-11-20T16:36:54.412Z,73.66
2022-11-20T16:39:24.140Z,73.84
2022-11-20T16:41:52.799Z,73.79
2022-11-20T16:44:21.996Z,73.62
2022-11-20T16:46:50.905Z,73.42
2022-11-20T16:49:19.275Z,73.24
2022-11-20T16:51:47.415Z,73.39
2022-11-20T16:54:20.512Z,73.41
2022-11-20T16:56:51.144Z,73.38
2022-11-20T16:59:19.497Z,73.29
2022-11-20T17:01:47.775Z,73.34
2022-11-20T17:04:18.686Z,73.45
2022-11-20T17:06:48.109Z,73.46
2022-11-20T17:09:16.408Z,73.55
2022-11-20T17:11:44.563Z,73.85
2022-11-20T17:14:13.329Z,74.00
2022-11-20T17:16:41.679Z,74.03
2022-11-20T17:19:10.118Z,74.41
2022-11-20T17:21:39.900Z,74.52
2022-11-20T17:24:10.841Z,74.61
2022-11-20T17:26:40.655Z,74.61
2022-11-20T17:29:11.839Z,74.67
2022-11-20T17:31:40.874Z,74.74
2022-11-20T17:34:12.181Z,74.83
2022-11-20T17:36:45.513Z,74.66
2022-11-20T17:39:15.676Z,74.77
2022-11-20T17:42:07.052Z,74.73
2022-11-20T17:44:35.440Z,74.65
2022-11-20T17:47:06.520Z,74.76
2022-11-20T17:49:34.650Z,74.69
2022-11-20T17:52:03.145Z,74.85
2022-11-20T17:54:35.951Z,74.89
2022-11-20T17:57:23.128Z,74.93
2022-11-20T17:59:51.187Z,74.92
2022-11-20T18:02:19.382Z,74.79
2022-11-20T18:04:47.698Z,74.78
2022-11-20T18:07:15.909Z,74.85
2022-11-20T18:09:44.418Z,75.05
2022-11-20T18:12:12.914Z,74.99
2022-11-20T18:14:41.842Z,74.99
2022-11-20T18:17:14.284Z,74.89
2022-11-20T18:20:06.806Z,74.90
2022-11-20T18:22:33.963Z,75.07
2022-11-20T18:25:05.155Z,75.15
2022-11-20T18:27:33.194Z,75.05
2022-11-20T18:30:01.552Z,75.08
2022-11-20T18:32:29.724Z,75.13
2022-11-20T18:34:57.899Z,75.11
2022-11-20T18:37:26.666Z,75.13
2022-11-20T18:39:56.105Z,75.23
2022-11-20T18:42:43.067Z,75.29
2022-11-20T18:45:11.475Z,75.54
2022-11-20T18:47:40.229Z,75.66
2022-11-20T18:50:09.942Z,75.55
2022-11-20T18:52:44.712Z,75.55
2022-11-20T18:55:13.717Z,75.74
2022-11-20T18:57:42.024Z,75.74
2022-11-20T19:00:10.756Z,75.73
2022-11-20T19:02:42.752Z,75.72
2022-11-20T19:05:14.135Z,75.92
2022-11-20T19:07:43.185Z,76.24
2022-11-20T19:10:12.709Z,76.72
2022-11-20T19:12:40.846Z,76.86
2022-11-20T19:15:09.377Z,77.02
2022-11-20T19:17:37.833Z,77.08
2022-11-20T19:20:07.076Z,76.94
2022-11-20T19:22:35.203Z,77.03
2022-11-20T19:25:03.384Z,77.13
2022-11-20T19:27:31.541Z,77.13
2022-11-20T19:30:03.358Z,77.15
2022-11-20T19:32:32.715Z,77.47
2022-11-20T19:35:01.103Z,77.49
2022-11-20T19:37:29.351Z,77.66
2022-11-20T19:39:59.663Z,77.50
2022-11-20T19:42:27.988Z,77.70
2022-11-20T19:44:58.231Z,77.78
2022-11-20T19:47:46.117Z,77.79
2022-11-20T19:50:16.488Z,77.86
2022-11-20T19:52:44.667Z,77.92
2022-11-20T19:55:12.914Z,78.10
2022-11-20T19:57:41.112Z,78.19
2022-11-20T20:00:09.876Z,78.50
2022-11-20T20:02:37.901Z,78.66
2022-11-20T20:05:07.143Z,78.86
2022-11-20T20:07:35.311Z,78.74
2022-11-20T20:10:03.565Z,78.76
2022-11-20T20:12:31.872Z,78.64
2022-11-20T20:14:59.929Z,78.63
2022-11-20T20:17:28.072Z,78.62
2022-11-20T20:19:56.549Z,78.51
2022-11-20T20:22:24.654Z,78.58
2022-11-20T20:24:52.769Z,78.60
2022-11-20T20:27:20.975Z,78.67
2022-11-20T20:29:49.102Z,78.67
2022-11-20T20:32:20.118Z,78.81
2022-11-20T20:34:48.494Z,78.95
2022-11-20T20:37:16.776Z,79.09
2022-11-20T20:39:44.756Z,79.24
2022-11-20T20:42:13.010Z,79.19
2022-11-20T20:44:59.694Z,79.06
2022-11-20T20:47:32.088Z,78.89
2022-11-20T20:50:01.349Z,78.74
2022-11-20T20:52:29.485Z,78.81
2022-11-20T20:54:57.633Z,78.57
2022-11-20T20:57:25.894Z,78.61
2022-11-20T20:59:55.492Z,78.52
2022-11-20T21:02:24.175Z,78.39
2022-11-20T21:04:52.514Z,78.48
2022-11-20T21:07:20.936Z,78.32
2022-11-20T21:09:49.127Z,78.32
2022-11-20T21:12:17.351Z,78.55
2022-11-20T21:14:45.695Z,78.42
2022-11-20T21:17:17.363Z,78.38
2022-11-20T21:19:45.445Z,78.64
2022-11-20T21:22:13.743Z,78.71
2022-11-20T21:24:44.036Z,78.62
2022-11-20T21:27:12.219Z,78.78
2022-11-20T21:29:40.402Z,78.81
2022-11-20T21:32:08.462Z,78.70
2022-11-20T21:34:36.505Z,78.63
2022-11-20T21:37:05.831Z,78.85
2022-11-20T21:39:33.913Z,78.88
2022-11-20T21:42:02.233Z,78.93
2022-11-20T21:44:31.950Z,78.88
2022-11-20T21:47:00.446Z,78.88
2022-11-20T21:49:28.754Z,78.92
2022-11-20T21:51:57.092Z,78.85
2022-11-20T21:54:25.757Z,78.84
2022-11-20T21:56:54.045Z,78.77
2022-11-20T21:59:22.594Z,78.81
2022-11-20T22:01:51.167Z,78.70
2022-11-20T22:04:20.161Z,78.58
2022-11-20T22:06:48.840Z,78.47
2022-11-20T22:09:18.107Z,78.46
2022-11-20T22:11:46.364Z,78.55
2022-11-20T22:14:20.914Z,78.48
2022-11-20T22:16:50.593Z,78.44
2022-11-20T22:19:20.725Z,78.44
2022-11-20T22:21:50.886Z,78.49
2022-11-20T22:24:23.085Z,78.31
2022-11-20T22:26:51.847Z,78.40
2022-11-20T22:29:21.451Z,78.40
2022-11-20T22:31:57.835Z,78.51
2022-11-20T22:34:28.934Z,78.45
2022-11-20T22:36:57.100Z,78.28
2022-11-20T22:39:25.324Z,78.59
2022-11-20T22:41:53.427Z,78.60
2022-11-20T22:44:22.523Z,78.58
2022-11-20T22:46:51.165Z,78.46
2022-11-20T22:49:19.321Z,78.56
2022-11-20T22:51:47.567Z,78.55
2022-11-20T22:54:16.017Z,78.55
2022-11-20T22:56:45.046Z,78.59
2022-11-20T22:59:13.299Z,78.56
2022-11-20T23:01:41.507Z,78.57
2022-11-20T23:04:11.124Z,78.56
2022-11-20T23:06:39.576Z,78.53
2022-11-20T23:09:10.288Z,78.58
2022-11-20T23:11:39.023Z,78.35
2022-11-20T23:14:13.375Z,78.14
2022-11-20T23:16:42.185Z,78.08
2022-11-20T23:19:13.238Z,78.11
2022-11-20T23:21:43.002Z,77.98
2022-11-20T23:24:11.462Z,77.89
2022-11-20T23:26:41.625Z,77.87
2022-11-20T23:29:10.307Z,77.84
2022-11-20T23:31:38.698Z,77.88
2022-11-20T23:34:07.022Z,77.96
2022-11-20T23:36:36.234Z,77.93
2022-11-20T23:39:04.533Z,77.92
2022-11-20T23:41:33.205Z,77.63
2022-11-20T23:44:01.337Z,77.71
2022-11-20T23:46:29.533Z,77.92
2022-11-20T23:48:57.644Z,77.93
2022-11-20T23:51:25.852Z,77.93
2022-11-20T23:53:54.078Z,77.77
2022-11-20T23:56:22.286Z,77.76
2022-11-20T23:58:50.465Z,77.77
